createdAt,value
2017-09-24T00:00:43.244Z,11.70
2017-09-24T00:03:09.394Z,12.10
2017-09-24T00:05:35.576Z,10.87
2017-09-24T00:08:01.737Z,11.37
2017-09-24T00:10:28.652Z,10.20
2017-09-24T00:12:54.813Z,9.23
2017-09-24T00:15:21.004Z,11.43
2017-09-24T00:17:47.188Z,11.90
2017-09-24T00:20:14.152Z,10.53
2017-09-24T00:22:40.309Z,9.50
2017-09-24T00:25:06.531Z,8.90
2017-09-24T00:27:32.705Z,9.90
2017-09-24T00:29:58.935Z,10.40
2017-09-24T00:32:25.121Z,14.43
2017-09-24T00:34:58.781Z,10.80
2017-09-24T00:37:24.971Z,11.17
2017-09-24T00:39:51.167Z,19.90
2017-09-24T00:42:17.395Z,13.30
2017-09-24T00:44:43.565Z,12.40
2017-09-24T00:47:09.769Z,11.70
2017-09-24T00:49:36.685Z,14.90
2017-09-24T00:52:02.884Z,15.17
2017-09-24T00:54:29.061Z,11.37
2017-09-24T00:56:55.258Z,13.30
2017-09-24T00:59:21.990Z,13.80
2017-09-24T01:01:48.280Z,12.77
2017-09-24T01:04:15.176Z,12.47
2017-09-24T01:06:42.099Z,12.87
2017-09-24T01:09:08.309Z,12.27
2017-09-24T01:11:34.492Z,12.63
2017-09-24T01:14:00.731Z,15.53
2017-09-24T01:16:26.927Z,14.30
2017-09-24T01:18:53.111Z,12.07
2017-09-24T01:21:20.113Z,12.33
2017-09-24T01:23:46.332Z,13.63
2017-09-24T01:26:12.543Z,13.60
2017-09-24T01:28:38.721Z,14.03
2017-09-24T01:31:04.970Z,13.10
2017-09-24T01:33:31.148Z,13.10
2017-09-24T01:35:57.352Z,12.93
2017-09-24T01:38:23.539Z,13.37
2017-09-24T01:40:50.496Z,11.10
2017-09-24T01:43:16.669Z,13.70
2017-09-24T01:45:42.891Z,11.40
2017-09-24T01:48:09.090Z,12.90
2017-09-24T01:50:35.281Z,11.27
2017-09-24T01:53:01.479Z,12.90
2017-09-24T01:55:27.667Z,12.90
2017-09-24T01:57:54.626Z,14.23
2017-09-24T02:00:20.824Z,13.30
2017-09-24T02:02:47.131Z,13.70
2017-09-24T02:05:14.047Z,12.63
2017-09-24T02:07:40.221Z,12.37
2017-09-24T02:10:06.391Z,13.30
2017-09-24T02:12:32.691Z,14.67
2017-09-24T02:14:58.876Z,14.67
2017-09-24T02:17:25.061Z,18.37
2017-09-24T02:19:51.259Z,12.23
2017-09-24T02:22:17.444Z,16.13
2017-09-24T02:24:43.607Z,15.33
2017-09-24T02:27:09.803Z,13.17
2017-09-24T02:29:35.959Z,11.57
2017-09-24T02:32:02.135Z,11.40
2017-09-24T02:34:28.292Z,12.37
2017-09-24T02:36:54.480Z,16.27
2017-09-24T02:39:20.652Z,16.93
2017-09-24T02:41:47.577Z,13.17
2017-09-24T02:44:14.496Z,13.57
2017-09-24T02:46:40.681Z,11.70
2017-09-24T02:49:06.855Z,13.57
2017-09-24T02:51:33.054Z,13.30
2017-09-24T02:53:59.989Z,13.50
2017-09-24T02:56:26.905Z,15.80
2017-09-24T02:58:53.081Z,22.80
2017-09-24T03:01:19.299Z,12.10
2017-09-24T03:03:45.460Z,12.37
2017-09-24T03:06:12.384Z,16.00
2017-09-24T03:08:39.331Z,11.80
2017-09-24T03:11:06.260Z,14.20
2017-09-24T03:13:33.160Z,15.87
2017-09-24T03:15:59.360Z,13.83
2017-09-24T03:18:25.516Z,11.27
2017-09-24T03:20:52.468Z,13.20
2017-09-24T03:23:18.647Z,11.73
2017-09-24T03:25:44.835Z,12.27
2017-09-24T03:28:11.002Z,16.43
2017-09-24T03:30:37.185Z,13.33
2017-09-24T03:33:03.366Z,9.70
2017-09-24T03:35:30.276Z,10.23
2017-09-24T03:37:56.819Z,11.20
2017-09-24T03:40:22.996Z,11.50
2017-09-24T03:42:49.171Z,13.20
2017-09-24T03:45:15.332Z,11.97
2017-09-24T03:47:41.607Z,13.87
2017-09-24T03:50:07.771Z,13.63
2017-09-24T03:52:33.943Z,11.73
2017-09-24T03:55:00.875Z,12.77
2017-09-24T03:57:27.029Z,10.83
2017-09-24T03:59:53.217Z,12.57
2017-09-24T04:02:20.111Z,12.20
2017-09-24T04:04:46.304Z,13.40
2017-09-24T04:07:12.495Z,12.33
2017-09-24T04:09:38.691Z,14.43
2017-09-24T04:12:04.860Z,14.37
2017-09-24T04:14:31.052Z,12.50
2017-09-24T04:16:57.224Z,10.87
2017-09-24T04:19:24.163Z,11.47
2017-09-24T04:21:51.057Z,12.30
2017-09-24T04:24:17.257Z,13.50
2017-09-24T04:26:43.413Z,11.87
2017-09-24T04:29:10.420Z,11.60
2017-09-24T04:31:36.588Z,12.43
2017-09-24T04:34:02.773Z,13.97
2017-09-24T04:36:29.668Z,12.37
2017-09-24T04:38:55.883Z,12.27
2017-09-24T04:41:22.068Z,14.73
2017-09-24T04:43:48.268Z,13.10
2017-09-24T04:46:14.427Z,10.03
2017-09-24T04:48:40.617Z,11.50
2017-09-24T04:51:06.811Z,11.40
2017-09-24T04:53:33.024Z,14.17
2017-09-24T04:55:59.260Z,12.23
2017-09-24T04:58:25.416Z,11.73
2017-09-24T05:00:51.608Z,24.43
2017-09-24T05:03:17.770Z,12.77
2017-09-24T05:05:43.948Z,18.40
2017-09-24T05:08:10.111Z,12.27
2017-09-24T05:10:36.290Z,14.90
2017-09-24T05:13:03.187Z,14.10
2017-09-24T05:15:29.403Z,16.67
2017-09-24T05:17:55.585Z,15.83
2017-09-24T05:20:21.761Z,15.63
2017-09-24T05:22:47.949Z,16.10
2017-09-24T05:25:14.107Z,18.40
2017-09-24T05:27:41.052Z,17.13
2017-09-24T05:30:07.280Z,29.23
2017-09-24T05:32:33.435Z,18.23
2017-09-24T05:34:59.616Z,19.70
2017-09-24T05:37:25.801Z,17.63
2017-09-24T05:39:52.028Z,15.70
2017-09-24T05:42:18.207Z,19.87
2017-09-24T05:44:45.097Z,17.87
2017-09-24T05:47:11.296Z,22.63
2017-09-24T05:49:37.463Z,20.20
2017-09-24T05:52:03.671Z,23.90
2017-09-24T05:54:29.829Z,21.63
2017-09-24T05:56:56.024Z,21.57
2017-09-24T05:59:29.309Z,21.53
2017-09-24T06:01:55.505Z,20.80
2017-09-24T06:04:22.418Z,24.10
2017-09-24T06:06:48.591Z,20.43
2017-09-24T06:09:14.772Z,23.83
2017-09-24T06:11:40.956Z,21.83
2017-09-24T06:14:07.150Z,21.07
2017-09-24T06:16:33.348Z,22.10
2017-09-24T06:18:59.504Z,21.70
2017-09-24T06:21:25.703Z,23.70
2017-09-24T06:23:51.899Z,19.03
2017-09-24T06:26:18.065Z,19.83
2017-09-24T06:28:44.255Z,19.97
2017-09-24T06:31:10.407Z,21.23
2017-09-24T06:33:36.596Z,22.43
2017-09-24T06:36:02.759Z,21.73
2017-09-24T06:38:28.972Z,26.03
2017-09-24T06:40:55.142Z,21.00
2017-09-24T06:43:22.074Z,23.10
2017-09-24T06:45:48.985Z,23.23
2017-09-24T06:48:15.183Z,22.60
2017-09-24T06:50:41.363Z,21.83
2017-09-24T06:53:07.721Z,21.40
2017-09-24T06:55:33.883Z,20.53
2017-09-24T06:58:00.072Z,18.60
2017-09-24T07:00:26.988Z,26.27
2017-09-24T07:02:53.192Z,23.07
2017-09-24T07:05:19.379Z,19.70
2017-09-24T07:07:45.572Z,21.93
2017-09-24T07:10:11.729Z,19.80
2017-09-24T07:12:37.925Z,22.50
2017-09-24T07:15:04.079Z,25.37
2017-09-24T07:17:30.250Z,23.77
2017-09-24T07:19:56.475Z,22.97
2017-09-24T07:22:25.468Z,23.07
2017-09-24T07:24:52.382Z,22.47
2017-09-24T07:27:18.567Z,23.80
2017-09-24T07:29:44.747Z,24.90
2017-09-24T07:32:10.933Z,24.50
2017-09-24T07:34:37.140Z,24.47
2017-09-24T07:37:03.327Z,28.40
2017-09-24T07:39:29.564Z,25.10
2017-09-24T07:41:55.760Z,29.20
2017-09-24T07:44:21.952Z,30.17
2017-09-24T07:46:48.861Z,26.50
2017-09-24T07:49:15.790Z,27.50
2017-09-24T07:51:42.047Z,26.97
2017-09-24T07:54:08.236Z,23.87
2017-09-24T07:56:35.144Z,26.00
2017-09-24T07:59:01.334Z,25.27
2017-09-24T08:01:27.539Z,28.10
2017-09-24T08:03:53.743Z,29.20
2017-09-24T08:06:19.934Z,28.90
2017-09-24T08:08:46.159Z,27.23
2017-09-24T08:11:12.656Z,26.37
2017-09-24T08:13:39.629Z,26.53
2017-09-24T08:16:05.790Z,29.90
2017-09-24T08:18:31.976Z,27.00
2017-09-24T08:20:58.216Z,32.40
2017-09-24T08:23:24.502Z,33.67
2017-09-24T08:25:50.685Z,27.80
2017-09-24T08:28:16.900Z,33.00
2017-09-24T08:30:43.901Z,38.37
2017-09-24T08:33:10.852Z,29.97
2017-09-24T08:35:37.023Z,33.87
2017-09-24T08:38:03.260Z,35.77
2017-09-24T08:40:30.271Z,30.77
2017-09-24T08:42:56.452Z,34.67
2017-09-24T08:45:22.654Z,29.50
2017-09-24T08:47:48.864Z,32.10
2017-09-24T08:50:15.127Z,31.10
2017-09-24T08:52:41.304Z,34.03
2017-09-24T08:55:07.517Z,31.63
2017-09-24T08:57:33.717Z,29.73
2017-09-24T09:00:00.653Z,29.90
2017-09-24T09:02:26.837Z,27.73
2017-09-24T09:04:53.033Z,31.97
2017-09-24T09:07:19.213Z,26.50
2017-09-24T09:09:45.400Z,36.90
2017-09-24T09:12:12.297Z,27.33
2017-09-24T09:14:38.495Z,29.60
2017-09-24T09:17:05.421Z,27.20
2017-09-24T09:19:31.629Z,25.30
2017-09-24T09:21:57.808Z,26.73
2017-09-24T09:24:24.724Z,33.10
2017-09-24T09:26:51.645Z,28.00
2017-09-24T09:29:17.837Z,24.17
2017-09-24T09:31:44.012Z,21.17
2017-09-24T09:34:22.625Z,26.73
2017-09-24T09:36:48.786Z,21.03
2017-09-24T09:39:14.951Z,22.80
2017-09-24T09:41:41.156Z,24.93
2017-09-24T09:44:19.627Z,26.17
2017-09-24T09:49:48.406Z,22.17
2017-09-24T09:52:15.328Z,31.37
2017-09-24T09:54:41.528Z,19.70
2017-09-24T09:57:07.744Z,22.73
2017-09-24T09:59:33.973Z,18.10
2017-09-24T10:02:00.157Z,21.13
2017-09-24T10:04:27.068Z,22.27
2017-09-24T10:07:05.380Z,21.43
2017-09-24T10:09:43.793Z,22.70
2017-09-24T10:12:09.993Z,21.80
2017-09-24T10:14:36.254Z,20.53
2017-09-24T10:17:02.479Z,22.37
2017-09-24T10:19:28.676Z,24.80
2017-09-24T10:21:54.877Z,26.37
2017-09-24T10:24:21.825Z,24.27
2017-09-24T10:26:48.777Z,28.53
2017-09-24T10:29:33.857Z,21.47
2017-09-24T10:32:01.166Z,22.00
2017-09-24T10:34:27.361Z,23.70
2017-09-24T10:36:53.578Z,22.87
2017-09-24T10:39:19.760Z,19.70
2017-09-24T10:41:46.702Z,19.37
2017-09-24T10:44:12.874Z,20.10
2017-09-24T10:46:39.101Z,18.90
2017-09-24T10:49:05.277Z,18.47
2017-09-24T10:51:31.496Z,20.43
2017-09-24T10:53:57.721Z,25.80
2017-09-24T10:56:23.938Z,20.17
2017-09-24T10:58:50.116Z,18.70
2017-09-24T11:01:17.052Z,17.60
2017-09-24T11:03:43.965Z,19.13
2017-09-24T11:06:10.190Z,17.47
2017-09-24T11:08:36.369Z,19.50
2017-09-24T11:11:02.591Z,22.77
2017-09-24T11:13:28.776Z,21.00
2017-09-24T11:15:55.057Z,19.80
2017-09-24T11:18:21.261Z,20.00
2017-09-24T11:20:48.304Z,25.30
2017-09-24T11:23:15.225Z,26.07
2017-09-24T11:25:41.526Z,22.60
2017-09-24T11:28:07.716Z,20.90
2017-09-24T11:30:34.642Z,19.53
2017-09-24T11:33:00.845Z,19.13
2017-09-24T11:35:27.029Z,22.17
2017-09-24T11:37:53.228Z,21.70
2017-09-24T11:40:19.397Z,23.70
2017-09-24T11:42:45.602Z,21.80
2017-09-24T11:45:11.782Z,29.67
2017-09-24T11:47:38.029Z,20.93
2017-09-24T11:50:04.242Z,25.10
2017-09-24T11:52:30.445Z,20.50
2017-09-24T11:54:56.616Z,24.70
2017-09-24T11:57:22.813Z,22.10
2017-09-24T11:59:48.997Z,21.90
2017-09-24T12:02:15.936Z,21.10
2017-09-24T12:04:42.861Z,23.00
2017-09-24T12:07:09.070Z,19.30
2017-09-24T12:09:35.265Z,20.83
2017-09-24T12:12:01.495Z,19.87
2017-09-24T12:14:27.674Z,22.53
2017-09-24T12:16:53.890Z,20.67
2017-09-24T12:19:20.093Z,29.80
2017-09-24T12:21:46.284Z,23.07
2017-09-24T12:24:12.493Z,18.60
2017-09-24T12:26:39.418Z,17.70
2017-09-24T12:29:05.633Z,19.83
2017-09-24T12:31:31.820Z,18.80
2017-09-24T12:33:58.017Z,19.30
2017-09-24T12:36:25.096Z,19.30
2017-09-24T12:38:51.300Z,19.43
2017-09-24T12:41:18.222Z,17.27
2017-09-24T12:43:44.429Z,18.97
2017-09-24T12:46:10.613Z,19.33
2017-09-24T12:48:36.832Z,17.40
2017-09-24T12:51:03.773Z,18.63
2017-09-24T12:53:30.709Z,29.07
2017-09-24T12:55:56.893Z,19.37
2017-09-24T12:58:23.097Z,20.87
2017-09-24T13:00:49.290Z,19.13
2017-09-24T13:03:15.490Z,20.57
2017-09-24T13:05:41.680Z,20.53
2017-09-24T13:08:07.881Z,23.97
2017-09-24T13:10:34.809Z,18.57
2017-09-24T13:13:01.029Z,21.80
2017-09-24T13:15:27.209Z,22.17
2017-09-24T13:17:53.440Z,20.53
2017-09-24T13:20:19.697Z,15.93
2017-09-24T13:22:45.885Z,25.17
2017-09-24T13:25:12.086Z,20.40
2017-09-24T13:27:38.997Z,19.33
2017-09-24T13:30:05.210Z,23.07
2017-09-24T13:32:31.389Z,18.60
2017-09-24T13:34:58.365Z,14.30
2017-09-24T13:37:24.533Z,16.23
2017-09-24T13:39:50.739Z,15.87
2017-09-24T13:42:16.940Z,17.57
2017-09-24T13:44:43.158Z,14.13
2017-09-24T13:47:10.098Z,12.50
2017-09-24T13:49:37.074Z,14.53
2017-09-24T13:52:03.293Z,14.00
2017-09-24T13:54:29.520Z,20.67
2017-09-24T13:56:55.704Z,18.50
2017-09-24T13:59:21.926Z,19.20
2017-09-24T14:01:48.110Z,17.23
2017-09-24T14:04:14.300Z,15.87
2017-09-24T14:06:41.249Z,15.20
2017-09-24T14:09:08.168Z,18.03
2017-09-24T14:11:34.368Z,16.40
2017-09-24T14:14:00.545Z,18.50
2017-09-24T14:16:27.556Z,16.83
2017-09-24T14:18:53.804Z,17.40
2017-09-24T14:21:20.013Z,21.40
2017-09-24T14:23:46.201Z,20.27
2017-09-24T14:26:12.424Z,20.60
2017-09-24T14:28:38.600Z,14.10
2017-09-24T14:31:05.577Z,17.83
2017-09-24T14:33:32.528Z,15.70
2017-09-24T14:35:59.480Z,14.80
2017-09-24T14:38:26.388Z,16.90
2017-09-24T14:40:52.597Z,16.70
2017-09-24T14:43:18.792Z,18.07
2017-09-24T14:45:44.984Z,12.70
2017-09-24T14:48:11.156Z,17.60
2017-09-24T14:50:37.358Z,16.47
2017-09-24T14:53:04.281Z,17.03
2017-09-24T14:55:30.493Z,17.10
2017-09-24T14:57:56.700Z,16.27
2017-09-24T15:00:22.905Z,14.30
2017-09-24T15:02:49.093Z,19.67
2017-09-24T15:05:15.320Z,18.70
2017-09-24T15:07:41.513Z,22.30
2017-09-24T15:10:07.760Z,22.17
2017-09-24T15:12:33.960Z,17.70
2017-09-24T15:15:00.168Z,17.17
2017-09-24T15:17:26.509Z,21.60
2017-09-24T15:19:52.738Z,21.50
2017-09-24T15:22:18.957Z,19.90
2017-09-24T15:24:45.210Z,22.00
2017-09-24T15:27:11.412Z,20.87
2017-09-24T15:29:37.681Z,25.10
2017-09-24T15:32:04.637Z,23.33
2017-09-24T15:34:30.836Z,31.50
2017-09-24T15:36:57.037Z,26.93
2017-09-24T15:39:23.213Z,25.13
2017-09-24T15:41:49.441Z,24.17
2017-09-24T15:44:15.664Z,23.00
2017-09-24T15:46:42.605Z,23.03
2017-09-24T15:49:08.792Z,24.63
2017-09-24T15:51:35.003Z,25.20
2017-09-24T15:54:01.924Z,26.53
2017-09-24T15:56:28.137Z,25.57
2017-09-24T15:58:54.322Z,25.37
2017-09-24T16:01:20.544Z,29.50
2017-09-24T16:03:47.461Z,24.17
2017-09-24T16:06:13.675Z,21.60
2017-09-24T16:08:39.873Z,31.20
2017-09-24T16:11:06.090Z,25.97
2017-09-24T16:13:32.304Z,24.43
2017-09-24T16:15:58.508Z,27.00
2017-09-24T16:18:25.541Z,24.70
2017-09-24T16:20:51.769Z,28.10
2017-09-24T16:23:17.990Z,28.90
2017-09-24T16:25:44.177Z,23.83
2017-09-24T16:28:10.380Z,30.60
2017-09-24T16:30:37.323Z,27.10
2017-09-24T16:33:04.269Z,37.67
2017-09-24T16:35:30.449Z,42.30
2017-09-24T16:37:56.651Z,34.33
2017-09-24T16:40:22.838Z,28.77
2017-09-24T16:42:49.817Z,29.90
2017-09-24T16:45:15.994Z,21.70
2017-09-24T16:47:42.201Z,29.23
2017-09-24T16:50:08.389Z,26.30
2017-09-24T16:52:34.561Z,33.70
2017-09-24T16:55:00.776Z,45.50
2017-09-24T16:57:26.973Z,44.90
2017-09-24T16:59:53.189Z,39.70
2017-09-24T17:02:20.131Z,34.93
2017-09-24T17:04:47.096Z,35.93
2017-09-24T17:07:13.278Z,36.87
2017-09-24T17:09:39.552Z,35.33
2017-09-24T17:12:05.757Z,39.17
2017-09-24T17:14:32.697Z,34.00
2017-09-24T17:16:59.617Z,33.13
2017-09-24T17:19:25.840Z,35.87
2017-09-24T17:21:52.333Z,53.93
2017-09-24T17:24:18.545Z,40.03
2017-09-24T17:26:45.469Z,34.67
2017-09-24T17:29:11.665Z,42.07
2017-09-24T17:31:37.840Z,41.47
2017-09-24T17:34:04.801Z,42.80
2017-09-24T17:36:30.976Z,45.93
2017-09-24T17:38:57.569Z,42.67
2017-09-24T17:41:23.756Z,42.70
2017-09-24T17:43:49.934Z,40.03
2017-09-24T17:46:16.133Z,42.83
2017-09-24T17:48:43.065Z,40.83
2017-09-24T17:51:10.035Z,44.43
2017-09-24T17:53:36.232Z,47.83
2017-09-24T17:56:03.205Z,63.80
2017-09-24T17:58:29.402Z,43.93
2017-09-24T18:00:55.633Z,57.00
2017-09-24T18:03:21.826Z,53.97
2017-09-24T18:05:48.026Z,45.63
2017-09-24T18:08:14.204Z,52.10
2017-09-24T18:10:40.409Z,77.20
2017-09-24T18:13:07.333Z,85.93
2017-09-24T18:15:33.533Z,68.83
2017-09-24T18:17:59.761Z,50.33
2017-09-24T18:20:26.716Z,44.53
2017-09-24T18:22:52.993Z,37.37
2017-09-24T18:25:19.197Z,40.60
2017-09-24T18:27:45.373Z,43.63
2017-09-24T18:30:11.581Z,59.90
2017-09-24T18:32:37.745Z,47.67
2017-09-24T18:35:04.697Z,109.07
2017-09-24T18:37:30.871Z,46.37
2017-09-24T18:39:57.069Z,95.40
2017-09-24T18:42:23.301Z,43.87
2017-09-24T18:44:49.504Z,46.63
2017-09-24T18:47:16.429Z,77.13
2017-09-24T18:49:42.630Z,51.30
2017-09-24T18:52:08.805Z,38.00
2017-09-24T18:54:35.021Z,89.63
2017-09-24T18:57:02.753Z,56.03
2017-09-24T18:59:29.769Z,80.23
2017-09-24T19:01:55.965Z,193.00
2017-09-24T19:04:22.884Z,194.10
2017-09-24T19:06:49.080Z,52.90
2017-09-24T19:09:15.253Z,94.70
2017-09-24T19:11:42.193Z,71.60
2017-09-24T19:14:08.374Z,65.43
2017-09-24T19:16:34.577Z,63.87
2017-09-24T19:19:00.770Z,64.30
2017-09-24T19:21:27.022Z,56.67
2017-09-24T19:23:53.223Z,60.53
2017-09-24T19:26:19.482Z,60.53
2017-09-24T19:28:46.393Z,78.30
2017-09-24T19:31:12.579Z,70.80
2017-09-24T19:33:38.816Z,63.17
2017-09-24T19:36:05.025Z,61.97
2017-09-24T19:38:31.225Z,63.00
2017-09-24T19:40:58.178Z,62.77
2017-09-24T19:43:25.132Z,79.73
2017-09-24T19:45:51.328Z,79.60
2017-09-24T19:48:17.593Z,77.40
2017-09-24T19:50:43.780Z,82.07
2017-09-24T19:53:09.993Z,67.47
2017-09-24T19:55:36.195Z,65.53
2017-09-24T19:58:02.398Z,70.10
2017-09-24T20:00:28.638Z,79.20
2017-09-24T20:03:02.644Z,89.20
2017-09-24T20:05:28.826Z,118.67
2017-09-24T20:07:55.011Z,100.80
2017-09-24T20:10:21.213Z,95.67
2017-09-24T20:12:48.136Z,84.83
2017-09-24T20:15:14.357Z,88.83
2017-09-24T20:17:40.538Z,85.77
2017-09-24T20:20:06.817Z,76.20
2017-09-24T20:22:32.997Z,101.37
2017-09-24T20:24:59.181Z,90.67
2017-09-24T20:27:26.175Z,85.70
2017-09-24T20:29:52.352Z,82.20
2017-09-24T20:32:19.301Z,94.03
2017-09-24T20:34:46.240Z,90.13
2017-09-24T20:37:13.217Z,86.70
2017-09-24T20:39:39.393Z,86.80
2017-09-24T20:42:05.605Z,80.80
2017-09-24T20:44:31.789Z,93.30
2017-09-24T20:46:58.749Z,89.23
2017-09-24T20:49:24.921Z,89.20
2017-09-24T20:51:51.121Z,99.37
2017-09-24T20:54:17.313Z,104.67
2017-09-24T20:56:44.245Z,105.43
2017-09-24T20:59:11.165Z,101.60
2017-09-24T21:01:37.386Z,119.03
2017-09-24T21:04:03.569Z,101.33
2017-09-24T21:06:29.762Z,109.57
2017-09-24T21:08:55.941Z,110.90
2017-09-24T21:11:22.138Z,103.83
2017-09-24T21:13:49.052Z,101.87
2017-09-24T21:16:15.253Z,98.67
2017-09-24T21:18:41.429Z,106.97
2017-09-24T21:21:08.416Z,84.93
2017-09-24T21:23:34.602Z,96.17
2017-09-24T21:26:01.546Z,87.00
2017-09-24T21:28:28.466Z,86.80
2017-09-24T21:30:54.672Z,92.27
2017-09-24T21:33:20.846Z,92.97
2017-09-24T21:35:47.796Z,86.90
2017-09-24T21:38:14.704Z,97.80
2017-09-24T21:40:40.885Z,103.57
2017-09-24T21:43:07.081Z,97.50
2017-09-24T21:45:33.285Z,107.30
2017-09-24T21:47:59.488Z,106.63
2017-09-24T21:50:25.689Z,102.47
2017-09-24T21:52:51.874Z,111.30
2017-09-24T21:55:18.117Z,100.13
2017-09-24T21:57:44.405Z,102.87
2017-09-24T22:00:10.581Z,91.13
2017-09-24T22:02:37.522Z,90.50
2017-09-24T22:05:03.717Z,93.90
2017-09-24T22:07:29.928Z,89.23
2017-09-24T22:09:56.104Z,109.37
2017-09-24T22:12:22.306Z,106.10
2017-09-24T22:14:48.509Z,93.67
2017-09-24T22:17:14.737Z,107.20
2017-09-24T22:19:40.930Z,134.90
2017-09-24T22:22:07.945Z,106.23
2017-09-24T22:24:34.141Z,116.43
2017-09-24T22:27:00.335Z,102.00
2017-09-24T22:29:27.288Z,98.60
2017-09-24T22:31:53.518Z,101.77
2017-09-24T22:34:19.755Z,104.60
2017-09-24T22:36:45.940Z,118.57
2017-09-24T22:39:12.141Z,100.20
2017-09-24T22:41:38.340Z,97.77
2017-09-24T22:44:04.554Z,109.77
2017-09-24T22:46:30.730Z,93.10
2017-09-24T22:48:56.941Z,101.63
2017-09-24T22:51:23.149Z,102.13
2017-09-24T22:53:49.356Z,105.93
2017-09-24T22:56:16.654Z,105.60
2017-09-24T22:58:42.865Z,95.80
2017-09-24T23:01:09.049Z,109.87
2017-09-24T23:03:35.998Z,94.80
2017-09-24T23:06:02.920Z,107.97
2017-09-24T23:08:29.130Z,128.93
2017-09-24T23:10:55.321Z,113.73
2017-09-24T23:13:21.525Z,117.73
2017-09-24T23:15:48.469Z,118.33
2017-09-24T23:18:15.489Z,104.30
2017-09-24T23:20:41.704Z,92.13
2017-09-24T23:23:07.922Z,96.40
2017-09-24T23:25:41.106Z,104.70
2017-09-24T23:28:07.321Z,93.40
2017-09-24T23:30:33.512Z,88.80
2017-09-24T23:32:59.717Z,94.03
2017-09-24T23:35:25.905Z,86.70
2017-09-24T23:37:52.127Z,78.27
2017-09-24T23:40:18.321Z,80.93
2017-09-24T23:42:44.503Z,105.13
2017-09-24T23:45:10.708Z,125.67
2017-09-24T23:47:37.641Z,106.47
2017-09-24T23:50:04.594Z,123.90
2017-09-24T23:52:30.952Z,127.83
2017-09-24T23:54:57.152Z,129.80
2017-09-24T23:57:23.352Z,92.30
2017-09-24T23:59:49.624Z,92.53
